sensor_id;sensor_type;location;lat;lon;timestamp;temperature;humidity
40253;DHT22;25972;51.854;4.534;2024-02-23T00:01:36;6.20;99.90
40253;DHT22;25972;51.854;4.534;2024-02-23T00:04:03;6.30;99.90
40253;DHT22;25972;51.854;4.534;2024-02-23T00:06:28;6.30;99.90
40253;DHT22;25972;51.854;4.534;2024-02-23T00:08:55;6.30;99.90
40253;DHT22;25972;51.854;4.534;2024-02-23T00:11:21;6.20;99.90
40253;DHT22;25972;51.854;4.534;2024-02-23T00:13:47;6.20;99.90
40253;DHT22;25972;51.854;4.534;2024-02-23T00:16:12;6.20;99.90
40253;DHT22;25972;51.854;4.534;2024-02-23T00:18:38;6.20;99.90
40253;DHT22;25972;51.854;4.534;2024-02-23T00:21:04;6.20;99.90
40253;DHT22;25972;51.854;4.534;2024-02-23T00:23:30;6.20;99.90
40253;DHT22;25972;51.854;4.534;2024-02-23T00:25:56;6.20;99.90
40253;DHT22;25972;51.854;4.534;2024-02-23T00:28:21;6.10;99.90
40253;DHT22;25972;51.854;4.534;2024-02-23T00:30:47;6.10;99.90
40253;DHT22;25972;51.854;4.534;2024-02-23T00:33:13;6.10;99.90
40253;DHT22;25972;51.854;4.534;2024-02-23T00:35:39;6.10;99.90
40253;DHT22;25972;51.854;4.534;2024-02-23T00:38:04;6.10;99.90
40253;DHT22;25972;51.854;4.534;2024-02-23T00:40:30;6.00;99.90
40253;DHT22;25972;51.854;4.534;2024-02-23T00:42:56;6.00;99.90
40253;DHT22;25972;51.854;4.534;2024-02-23T00:45:21;6.10;99.90
40253;DHT22;25972;51.854;4.534;2024-02-23T00:47:48;6.10;99.90
40253;DHT22;25972;51.854;4.534;2024-02-23T00:50:14;6.00;99.90
40253;DHT22;25972;51.854;4.534;2024-02-23T00:52:40;6.10;99.90
40253;DHT22;25972;51.854;4.534;2024-02-23T00:55:06;6.00;99.90
40253;DHT22;25972;51.854;4.534;2024-02-23T00:57:34;6.00;99.90
40253;DHT22;25972;51.854;4.534;2024-02-23T01:00:01;6.00;99.90
40253;DHT22;25972;51.854;4.534;2024-02-23T01:02:28;6.00;99.90
40253;DHT22;25972;51.854;4.534;2024-02-23T01:04:54;6.00;99.90
40253;DHT22;25972;51.854;4.534;2024-02-23T01:07:22;6.00;99.90
40253;DHT22;25972;51.854;4.534;2024-02-23T01:09:48;6.00;99.90
40253;DHT22;25972;51.854;4.534;2024-02-23T01:12:14;6.00;99.90
40253;DHT22;25972;51.854;4.534;2024-02-23T01:14:39;6.00;99.90
40253;DHT22;25972;51.854;4.534;2024-02-23T01:17:05;5.90;99.90
40253;DHT22;25972;51.854;4.534;2024-02-23T01:19:31;5.90;99.90
40253;DHT22;25972;51.854;4.534;2024-02-23T01:21:57;5.80;99.90
40253;DHT22;25972;51.854;4.534;2024-02-23T01:24:28;5.80;99.90
40253;DHT22;25972;51.854;4.534;2024-02-23T01:26:57;5.80;99.90
40253;DHT22;25972;51.854;4.534;2024-02-23T01:29:25;5.70;99.90
40253;DHT22;25972;51.854;4.534;2024-02-23T01:31:51;5.80;99.90
40253;DHT22;25972;51.854;4.534;2024-02-23T01:34:17;5.70;99.90
40253;DHT22;25972;51.854;4.534;2024-02-23T01:36:44;5.70;99.90
40253;DHT22;25972;51.854;4.534;2024-02-23T01:39:09;5.70;99.90
40253;DHT22;25972;51.854;4.534;2024-02-23T01:41:36;5.70;99.90
40253;DHT22;25972;51.854;4.534;2024-02-23T01:44:02;5.70;99.90
40253;DHT22;25972;51.854;4.534;2024-02-23T01:46:28;5.70;99.90
40253;DHT22;25972;51.854;4.534;2024-02-23T01:48:54;5.60;99.90
40253;DHT22;25972;51.854;4.534;2024-02-23T01:51:20;5.60;99.90
40253;DHT22;25972;51.854;4.534;2024-02-23T01:53:46;5.70;99.90
40253;DHT22;25972;51.854;4.534;2024-02-23T01:56:12;5.60;99.90
40253;DHT22;25972;51.854;4.534;2024-02-23T01:58:43;5.60;99.90
40253;DHT22;25972;51.854;4.534;2024-02-23T02:01:10;5.60;99.90
40253;DHT22;25972;51.854;4.534;2024-02-23T02:03:37;5.60;99.90
40253;DHT22;25972;51.854;4.534;2024-02-23T02:06:09;5.60;99.90
40253;DHT22;25972;51.854;4.534;2024-02-23T02:08:34;5.50;99.90
40253;DHT22;25972;51.854;4.534;2024-02-23T02:11:00;5.50;99.90
40253;DHT22;25972;51.854;4.534;2024-02-23T02:13:28;5.50;99.90
40253;DHT22;25972;51.854;4.534;2024-02-23T02:15:55;5.50;99.90
40253;DHT22;25972;51.854;4.534;2024-02-23T02:18:21;5.50;99.90
40253;DHT22;25972;51.854;4.534;2024-02-23T02:20:57;5.60;99.90
40253;DHT22;25972;51.854;4.534;2024-02-23T02:23:23;5.60;99.90
40253;DHT22;25972;51.854;4.534;2024-02-23T02:25:57;5.60;99.90
40253;DHT22;25972;51.854;4.534;2024-02-23T02:28:26;5.60;99.90
40253;DHT22;25972;51.854;4.534;2024-02-23T02:30:52;5.60;99.90
40253;DHT22;25972;51.854;4.534;2024-02-23T02:33:21;5.60;99.90
40253;DHT22;25972;51.854;4.534;2024-02-23T02:35:48;5.50;99.90
40253;DHT22;25972;51.854;4.534;2024-02-23T02:38:13;5.50;99.90
40253;DHT22;25972;51.854;4.534;2024-02-23T02:40:39;5.50;99.90
40253;DHT22;25972;51.854;4.534;2024-02-23T02:43:05;5.50;99.90
40253;DHT22;25972;51.854;4.534;2024-02-23T02:45:32;5.50;99.90
40253;DHT22;25972;51.854;4.534;2024-02-23T02:47:59;5.50;99.90
40253;DHT22;25972;51.854;4.534;2024-02-23T02:50:25;5.50;99.90
40253;DHT22;25972;51.854;4.534;2024-02-23T02:52:50;5.50;99.90
40253;DHT22;25972;51.854;4.534;2024-02-23T02:55:16;5.50;99.90
40253;DHT22;25972;51.854;4.534;2024-02-23T02:57:44;5.50;99.90
40253;DHT22;25972;51.854;4.534;2024-02-23T03:00:10;5.40;99.90
40253;DHT22;25972;51.854;4.534;2024-02-23T03:02:36;5.40;99.90
40253;DHT22;25972;51.854;4.534;2024-02-23T03:05:02;5.40;99.90
40253;DHT22;25972;51.854;4.534;2024-02-23T03:07:27;5.30;99.90
40253;DHT22;25972;51.854;4.534;2024-02-23T03:09:53;5.30;99.90
40253;DHT22;25972;51.854;4.534;2024-02-23T03:12:19;5.30;99.90
40253;DHT22;25972;51.854;4.534;2024-02-23T03:14:45;5.20;99.90
40253;DHT22;25972;51.854;4.534;2024-02-23T03:17:11;5.20;99.90
40253;DHT22;25972;51.854;4.534;2024-02-23T03:19:37;5.20;99.90
40253;DHT22;25972;51.854;4.534;2024-02-23T03:22:03;5.20;99.90
40253;DHT22;25972;51.854;4.534;2024-02-23T03:24:28;5.20;99.90
40253;DHT22;25972;51.854;4.534;2024-02-23T03:26:54;5.20;99.90
40253;DHT22;25972;51.854;4.534;2024-02-23T03:29:21;5.20;99.90
40253;DHT22;25972;51.854;4.534;2024-02-23T03:31:50;5.20;99.90
40253;DHT22;25972;51.854;4.534;2024-02-23T03:34:19;5.10;99.90
40253;DHT22;25972;51.854;4.534;2024-02-23T03:36:45;5.20;99.90
40253;DHT22;25972;51.854;4.534;2024-02-23T03:39:10;5.10;99.90
40253;DHT22;25972;51.854;4.534;2024-02-23T03:41:36;5.10;99.90
40253;DHT22;25972;51.854;4.534;2024-02-23T03:44:02;5.10;99.90
40253;DHT22;25972;51.854;4.534;2024-02-23T03:46:27;5.20;99.90
40253;DHT22;25972;51.854;4.534;2024-02-23T03:48:53;5.20;99.90
40253;DHT22;25972;51.854;4.534;2024-02-23T03:51:19;5.10;99.90
40253;DHT22;25972;51.854;4.534;2024-02-23T03:53:45;5.10;99.90
40253;DHT22;25972;51.854;4.534;2024-02-23T03:56:10;5.20;99.90
40253;DHT22;25972;51.854;4.534;2024-02-23T03:58:37;5.20;99.90
40253;DHT22;25972;51.854;4.534;2024-02-23T04:01:03;5.20;99.90
40253;DHT22;25972;51.854;4.534;2024-02-23T04:03:29;5.10;99.90
40253;DHT22;25972;51.854;4.534;2024-02-23T04:05:54;5.10;99.90
40253;DHT22;25972;51.854;4.534;2024-02-23T04:08:20;5.10;99.90
40253;DHT22;25972;51.854;4.534;2024-02-23T04:10:46;5.20;99.90
40253;DHT22;25972;51.854;4.534;2024-02-23T04:13:12;5.20;99.90
40253;DHT22;25972;51.854;4.534;2024-02-23T04:15:39;5.20;99.90
40253;DHT22;25972;51.854;4.534;2024-02-23T04:18:06;5.30;99.90
40253;DHT22;25972;51.854;4.534;2024-02-23T04:20:31;5.30;99.90
40253;DHT22;25972;51.854;4.534;2024-02-23T04:22:58;5.40;99.90
40253;DHT22;25972;51.854;4.534;2024-02-23T04:25:24;5.40;99.90
40253;DHT22;25972;51.854;4.534;2024-02-23T04:27:50;5.40;99.90
40253;DHT22;25972;51.854;4.534;2024-02-23T04:30:15;5.50;99.90
40253;DHT22;25972;51.854;4.534;2024-02-23T04:32:41;5.50;99.90
40253;DHT22;25972;51.854;4.534;2024-02-23T04:35:08;5.50;99.90
40253;DHT22;25972;51.854;4.534;2024-02-23T04:37:34;5.50;99.90
40253;DHT22;25972;51.854;4.534;2024-02-23T04:39:59;5.60;99.90
40253;DHT22;25972;51.854;4.534;2024-02-23T04:42:25;5.60;99.90
40253;DHT22;25972;51.854;4.534;2024-02-23T04:44:51;5.60;99.90
40253;DHT22;25972;51.854;4.534;2024-02-23T04:47:20;5.60;99.90
40253;DHT22;25972;51.854;4.534;2024-02-23T04:49:45;5.60;99.90
40253;DHT22;25972;51.854;4.534;2024-02-23T04:52:11;5.60;99.90
40253;DHT22;25972;51.854;4.534;2024-02-23T04:54:37;5.70;99.90
40253;DHT22;25972;51.854;4.534;2024-02-23T04:57:02;5.70;99.90
40253;DHT22;25972;51.854;4.534;2024-02-23T04:59:29;5.70;99.90
40253;DHT22;25972;51.854;4.534;2024-02-23T05:01:57;5.80;99.90
40253;DHT22;25972;51.854;4.534;2024-02-23T05:04:23;5.70;99.90
40253;DHT22;25972;51.854;4.534;2024-02-23T05:06:49;5.70;99.90
40253;DHT22;25972;51.854;4.534;2024-02-23T05:09:14;5.70;99.90
40253;DHT22;25972;51.854;4.534;2024-02-23T05:11:40;5.60;99.90
40253;DHT22;25972;51.854;4.534;2024-02-23T05:14:06;5.70;99.90
40253;DHT22;25972;51.854;4.534;2024-02-23T05:16:32;5.60;99.90
40253;DHT22;25972;51.854;4.534;2024-02-23T05:18:57;5.50;99.90
40253;DHT22;25972;51.854;4.534;2024-02-23T05:21:23;5.50;99.90
40253;DHT22;25972;51.854;4.534;2024-02-23T05:23:49;5.50;99.90
40253;DHT22;25972;51.854;4.534;2024-02-23T05:26:17;5.50;99.90
40253;DHT22;25972;51.854;4.534;2024-02-23T05:28:43;5.40;99.90
40253;DHT22;25972;51.854;4.534;2024-02-23T05:31:09;5.40;99.90
40253;DHT22;25972;51.854;4.534;2024-02-23T05:33:35;5.40;99.90
40253;DHT22;25972;51.854;4.534;2024-02-23T05:36:01;5.40;99.90
40253;DHT22;25972;51.854;4.534;2024-02-23T05:38:27;5.40;99.90
40253;DHT22;25972;51.854;4.534;2024-02-23T05:40:52;5.40;99.90
40253;DHT22;25972;51.854;4.534;2024-02-23T05:43:18;5.50;99.90
40253;DHT22;25972;51.854;4.534;2024-02-23T05:45:44;5.50;99.90
40253;DHT22;25972;51.854;4.534;2024-02-23T05:48:10;5.50;99.90
40253;DHT22;25972;51.854;4.534;2024-02-23T05:50:37;5.40;99.90
40253;DHT22;25972;51.854;4.534;2024-02-23T05:53:03;5.40;99.90
40253;DHT22;25972;51.854;4.534;2024-02-23T05:55:30;5.50;99.90
40253;DHT22;25972;51.854;4.534;2024-02-23T05:57:56;5.50;99.90
40253;DHT22;25972;51.854;4.534;2024-02-23T06:00:22;5.50;99.90
40253;DHT22;25972;51.854;4.534;2024-02-23T06:02:47;5.50;99.90
40253;DHT22;25972;51.854;4.534;2024-02-23T06:05:13;5.50;99.90
40253;DHT22;25972;51.854;4.534;2024-02-23T06:07:40;5.50;99.90
40253;DHT22;25972;51.854;4.534;2024-02-23T06:10:07;5.50;99.90
40253;DHT22;25972;51.854;4.534;2024-02-23T06:12:32;5.50;99.90
40253;DHT22;25972;51.854;4.534;2024-02-23T06:14:58;5.50;99.90
40253;DHT22;25972;51.854;4.534;2024-02-23T06:17:24;5.50;99.90
40253;DHT22;25972;51.854;4.534;2024-02-23T06:19:50;5.60;99.90
40253;DHT22;25972;51.854;4.534;2024-02-23T06:22:18;5.40;99.90
40253;DHT22;25972;51.854;4.534;2024-02-23T06:24:47;5.40;99.90
40253;DHT22;25972;51.854;4.534;2024-02-23T06:27:12;5.40;99.90
40253;DHT22;25972;51.854;4.534;2024-02-23T06:29:38;5.40;99.90
40253;DHT22;25972;51.854;4.534;2024-02-23T06:32:04;5.50;99.90
40253;DHT22;25972;51.854;4.534;2024-02-23T06:34:30;5.50;99.90
40253;DHT22;25972;51.854;4.534;2024-02-23T06:36:56;5.50;99.90
40253;DHT22;25972;51.854;4.534;2024-02-23T06:39:21;5.50;99.90
40253;DHT22;25972;51.854;4.534;2024-02-23T06:41:47;5.50;99.90
40253;DHT22;25972;51.854;4.534;2024-02-23T06:44:13;5.50;99.90
40253;DHT22;25972;51.854;4.534;2024-02-23T06:46:38;5.50;99.90
40253;DHT22;25972;51.854;4.534;2024-02-23T06:49:04;5.60;99.90
40253;DHT22;25972;51.854;4.534;2024-02-23T06:51:31;5.60;99.90
40253;DHT22;25972;51.854;4.534;2024-02-23T06:53:57;5.60;99.90
40253;DHT22;25972;51.854;4.534;2024-02-23T06:56:23;5.60;99.90
40253;DHT22;25972;51.854;4.534;2024-02-23T06:58:49;5.60;99.90
40253;DHT22;25972;51.854;4.534;2024-02-23T07:01:15;5.70;99.90
40253;DHT22;25972;51.854;4.534;2024-02-23T07:03:40;5.70;99.90
40253;DHT22;25972;51.854;4.534;2024-02-23T07:06:11;5.70;99.90
40253;DHT22;25972;51.854;4.534;2024-02-23T07:08:37;5.70;99.90
40253;DHT22;25972;51.854;4.534;2024-02-23T07:11:03;5.80;99.90
40253;DHT22;25972;51.854;4.534;2024-02-23T07:13:29;5.70;99.90
40253;DHT22;25972;51.854;4.534;2024-02-23T07:15:55;5.70;99.90
40253;DHT22;25972;51.854;4.534;2024-02-23T07:18:22;5.70;99.90
40253;DHT22;25972;51.854;4.534;2024-02-23T07:20:47;5.70;99.90
40253;DHT22;25972;51.854;4.534;2024-02-23T07:23:13;5.70;99.90
40253;DHT22;25972;51.854;4.534;2024-02-23T07:25:43;5.70;99.90
40253;DHT22;25972;51.854;4.534;2024-02-23T07:28:09;5.70;99.90
40253;DHT22;25972;51.854;4.534;2024-02-23T07:30:35;5.70;99.90
40253;DHT22;25972;51.854;4.534;2024-02-23T07:33:00;5.70;99.90
40253;DHT22;25972;51.854;4.534;2024-02-23T07:35:26;5.60;99.90
40253;DHT22;25972;51.854;4.534;2024-02-23T07:37:53;5.60;99.90
40253;DHT22;25972;51.854;4.534;2024-02-23T07:40:20;5.60;99.90
40253;DHT22;25972;51.854;4.534;2024-02-23T07:42:47;5.50;99.90
40253;DHT22;25972;51.854;4.534;2024-02-23T07:45:13;5.50;99.90
40253;DHT22;25972;51.854;4.534;2024-02-23T07:47:39;5.40;99.90
40253;DHT22;25972;51.854;4.534;2024-02-23T07:50:05;5.40;99.90
40253;DHT22;25972;51.854;4.534;2024-02-23T07:52:31;5.40;99.90
40253;DHT22;25972;51.854;4.534;2024-02-23T07:54:57;5.40;99.90
40253;DHT22;25972;51.854;4.534;2024-02-23T07:57:23;5.40;99.90
40253;DHT22;25972;51.854;4.534;2024-02-23T07:59:49;5.40;99.90
40253;DHT22;25972;51.854;4.534;2024-02-23T08:02:15;5.40;99.90
40253;DHT22;25972;51.854;4.534;2024-02-23T08:04:41;5.40;99.90
40253;DHT22;25972;51.854;4.534;2024-02-23T08:07:07;5.40;99.90
40253;DHT22;25972;51.854;4.534;2024-02-23T08:09:33;5.40;99.90
40253;DHT22;25972;51.854;4.534;2024-02-23T08:11:59;5.40;99.90
40253;DHT22;25972;51.854;4.534;2024-02-23T08:14:25;5.40;99.90
40253;DHT22;25972;51.854;4.534;2024-02-23T08:16:50;5.40;99.90
40253;DHT22;25972;51.854;4.534;2024-02-23T08:19:16;5.40;99.90
40253;DHT22;25972;51.854;4.534;2024-02-23T08:21:42;5.40;99.90
40253;DHT22;25972;51.854;4.534;2024-02-23T08:24:09;5.40;99.90
40253;DHT22;25972;51.854;4.534;2024-02-23T08:26:34;5.50;99.90
40253;DHT22;25972;51.854;4.534;2024-02-23T08:58:31;5.70;99.90
40253;DHT22;25972;51.854;4.534;2024-02-23T09:00:57;5.70;99.90
40253;DHT22;25972;51.854;4.534;2024-02-23T09:03:23;5.70;99.90
40253;DHT22;25972;51.854;4.534;2024-02-23T09:05:49;5.70;99.90
40253;DHT22;25972;51.854;4.534;2024-02-23T09:08:14;5.80;99.90
40253;DHT22;25972;51.854;4.534;2024-02-23T09:10:40;5.80;99.90
40253;DHT22;25972;51.854;4.534;2024-02-23T09:13:06;5.80;99.90
40253;DHT22;25972;51.854;4.534;2024-02-23T09:15:32;5.90;99.90
40253;DHT22;25972;51.854;4.534;2024-02-23T09:17:57;6.10;99.90
40253;DHT22;25972;51.854;4.534;2024-02-23T09:20:23;6.10;99.90
40253;DHT22;25972;51.854;4.534;2024-02-23T09:22:48;6.20;99.90
40253;DHT22;25972;51.854;4.534;2024-02-23T09:25:14;6.30;99.90
40253;DHT22;25972;51.854;4.534;2024-02-23T09:27:40;6.30;99.90
40253;DHT22;25972;51.854;4.534;2024-02-23T09:30:17;6.30;99.90
40253;DHT22;25972;51.854;4.534;2024-02-23T09:32:43;6.40;99.90
40253;DHT22;25972;51.854;4.534;2024-02-23T09:35:10;6.40;99.90
40253;DHT22;25972;51.854;4.534;2024-02-23T09:37:35;6.40;99.90
40253;DHT22;25972;51.854;4.534;2024-02-23T09:40:01;6.40;99.90
40253;DHT22;25972;51.854;4.534;2024-02-23T09:42:28;6.40;99.90
40253;DHT22;25972;51.854;4.534;2024-02-23T09:44:59;6.40;99.90
40253;DHT22;25972;51.854;4.534;2024-02-23T09:47:27;6.40;99.90
40253;DHT22;25972;51.854;4.534;2024-02-23T09:49:54;6.40;99.90
40253;DHT22;25972;51.854;4.534;2024-02-23T09:52:21;6.30;99.90
40253;DHT22;25972;51.854;4.534;2024-02-23T09:54:47;6.40;99.90
40253;DHT22;25972;51.854;4.534;2024-02-23T09:57:14;6.30;99.90
40253;DHT22;25972;51.854;4.534;2024-02-23T09:59:41;6.30;99.90
40253;DHT22;25972;51.854;4.534;2024-02-23T10:02:15;6.30;99.90
40253;DHT22;25972;51.854;4.534;2024-02-23T10:04:42;6.40;99.90
40253;DHT22;25972;51.854;4.534;2024-02-23T10:07:09;6.40;99.90
40253;DHT22;25972;51.854;4.534;2024-02-23T10:09:35;6.40;99.90
40253;DHT22;25972;51.854;4.534;2024-02-23T10:12:02;6.60;99.90
40253;DHT22;25972;51.854;4.534;2024-02-23T10:14:27;6.70;99.90
40253;DHT22;25972;51.854;4.534;2024-02-23T10:16:53;6.70;99.90
40253;DHT22;25972;51.854;4.534;2024-02-23T10:19:21;6.80;99.90
40253;DHT22;25972;51.854;4.534;2024-02-23T10:21:47;6.80;99.90
40253;DHT22;25972;51.854;4.534;2024-02-23T10:24:15;6.90;99.90
40253;DHT22;25972;51.854;4.534;2024-02-23T10:26:41;7.00;99.90
40253;DHT22;25972;51.854;4.534;2024-02-23T10:29:07;7.00;99.90
40253;DHT22;25972;51.854;4.534;2024-02-23T10:31:35;7.00;99.90
40253;DHT22;25972;51.854;4.534;2024-02-23T10:34:09;6.90;99.90
40253;DHT22;25972;51.854;4.534;2024-02-23T10:36:41;6.90;99.90
40253;DHT22;25972;51.854;4.534;2024-02-23T10:39:11;7.00;99.90
40253;DHT22;25972;51.854;4.534;2024-02-23T10:41:50;7.10;99.90
40253;DHT22;25972;51.854;4.534;2024-02-23T10:44:18;7.20;99.90
40253;DHT22;25972;51.854;4.534;2024-02-23T10:46:44;7.40;99.90
40253;DHT22;25972;51.854;4.534;2024-02-23T10:49:11;7.50;99.90
40253;DHT22;25972;51.854;4.534;2024-02-23T10:51:39;7.60;99.90
40253;DHT22;25972;51.854;4.534;2024-02-23T10:54:06;7.50;99.90
40253;DHT22;25972;51.854;4.534;2024-02-23T10:56:32;7.60;99.90
40253;DHT22;25972;51.854;4.534;2024-02-23T10:58:58;7.80;99.90
40253;DHT22;25972;51.854;4.534;2024-02-23T11:01:24;7.90;99.90
40253;DHT22;25972;51.854;4.534;2024-02-23T11:03:51;7.80;99.90
40253;DHT22;25972;51.854;4.534;2024-02-23T11:06:19;7.80;99.90
40253;DHT22;25972;51.854;4.534;2024-02-23T11:08:47;7.90;99.90
40253;DHT22;25972;51.854;4.534;2024-02-23T11:11:16;8.00;99.90
40253;DHT22;25972;51.854;4.534;2024-02-23T11:13:44;8.00;99.90
40253;DHT22;25972;51.854;4.534;2024-02-23T11:16:09;8.00;99.90
40253;DHT22;25972;51.854;4.534;2024-02-23T11:18:36;8.00;99.90
40253;DHT22;25972;51.854;4.534;2024-02-23T11:21:09;8.20;99.90
40253;DHT22;25972;51.854;4.534;2024-02-23T11:23:47;8.30;99.90
40253;DHT22;25972;51.854;4.534;2024-02-23T11:26:14;8.40;99.90
40253;DHT22;25972;51.854;4.534;2024-02-23T11:28:58;8.30;99.90
40253;DHT22;25972;51.854;4.534;2024-02-23T11:31:25;8.20;99.90
40253;DHT22;25972;51.854;4.534;2024-02-23T11:33:55;8.10;99.90
40253;DHT22;25972;51.854;4.534;2024-02-23T11:36:31;8.10;99.90
40253;DHT22;25972;51.854;4.534;2024-02-23T11:38:59;8.10;99.90
40253;DHT22;25972;51.854;4.534;2024-02-23T11:41:26;8.10;99.90
40253;DHT22;25972;51.854;4.534;2024-02-23T11:43:53;8.10;99.90
40253;DHT22;25972;51.854;4.534;2024-02-23T11:46:21;8.20;99.90
40253;DHT22;25972;51.854;4.534;2024-02-23T11:48:47;8.20;99.90
40253;DHT22;25972;51.854;4.534;2024-02-23T11:51:21;8.30;99.90
40253;DHT22;25972;51.854;4.534;2024-02-23T11:53:48;8.30;99.90
40253;DHT22;25972;51.854;4.534;2024-02-23T11:56:14;8.30;99.90
40253;DHT22;25972;51.854;4.534;2024-02-23T11:58:41;8.20;99.90
40253;DHT22;25972;51.854;4.534;2024-02-23T12:01:07;8.30;99.90
40253;DHT22;25972;51.854;4.534;2024-02-23T12:03:33;8.30;96.70
40253;DHT22;25972;51.854;4.534;2024-02-23T12:06:02;8.20;92.70
40253;DHT22;25972;51.854;4.534;2024-02-23T12:08:30;8.30;96.30
40253;DHT22;25972;51.854;4.534;2024-02-23T12:11:03;8.40;86.40
40253;DHT22;25972;51.854;4.534;2024-02-23T12:13:29;8.40;69.70
40253;DHT22;25972;51.854;4.534;2024-02-23T12:15:55;8.50;70.60
40253;DHT22;25972;51.854;4.534;2024-02-23T12:18:22;8.60;55.20
40253;DHT22;25972;51.854;4.534;2024-02-23T12:20:59;8.60;36.90
40253;DHT22;25972;51.854;4.534;2024-02-23T12:23:26;8.60;23.10
40253;DHT22;25972;51.854;4.534;2024-02-23T12:25:58;8.50;18.10
40253;DHT22;25972;51.854;4.534;2024-02-23T12:28:26;8.60;23.20
40253;DHT22;25972;51.854;4.534;2024-02-23T12:31:02;8.60;8.70
40253;DHT22;25972;51.854;4.534;2024-02-23T12:33:29;8.60;3.70
40253;DHT22;25972;51.854;4.534;2024-02-23T12:36:02;8.70;2.30
40253;DHT22;25972;51.854;4.534;2024-02-23T12:38:28;8.60;1.00
40253;DHT22;25972;51.854;4.534;2024-02-23T12:40:54;8.60;1.00
40253;DHT22;25972;51.854;4.534;2024-02-23T12:43:21;8.60;1.00
40253;DHT22;25972;51.854;4.534;2024-02-23T12:45:50;8.60;1.00
40253;DHT22;25972;51.854;4.534;2024-02-23T12:48:16;8.60;1.00
40253;DHT22;25972;51.854;4.534;2024-02-23T12:50:43;8.70;4.40
40253;DHT22;25972;51.854;4.534;2024-02-23T12:53:09;8.70;1.00
40253;DHT22;25972;51.854;4.534;2024-02-23T12:55:36;8.60;1.00
40253;DHT22;25972;51.854;4.534;2024-02-23T12:58:02;8.70;1.00
40253;DHT22;25972;51.854;4.534;2024-02-23T13:00:28;8.70;1.00
40253;DHT22;25972;51.854;4.534;2024-02-23T13:02:54;8.70;1.00
40253;DHT22;25972;51.854;4.534;2024-02-23T13:05:20;8.70;1.00
40253;DHT22;25972;51.854;4.534;2024-02-23T13:07:46;8.60;1.00
40253;DHT22;25972;51.854;4.534;2024-02-23T13:10:12;8.60;1.00
40253;DHT22;25972;51.854;4.534;2024-02-23T13:12:38;8.60;1.00
40253;DHT22;25972;51.854;4.534;2024-02-23T13:15:04;8.70;1.00
40253;DHT22;25972;51.854;4.534;2024-02-23T13:17:30;8.80;1.00
40253;DHT22;25972;51.854;4.534;2024-02-23T13:19:56;8.80;1.00
40253;DHT22;25972;51.854;4.534;2024-02-23T13:22:21;9.00;1.00
40253;DHT22;25972;51.854;4.534;2024-02-23T13:24:47;9.10;1.00
40253;DHT22;25972;51.854;4.534;2024-02-23T13:27:13;9.00;1.00
40253;DHT22;25972;51.854;4.534;2024-02-23T13:29:39;9.10;1.00
40253;DHT22;25972;51.854;4.534;2024-02-23T13:32:05;9.20;1.00
40253;DHT22;25972;51.854;4.534;2024-02-23T13:34:30;9.30;1.00
40253;DHT22;25972;51.854;4.534;2024-02-23T13:36:56;9.30;1.00
40253;DHT22;25972;51.854;4.534;2024-02-23T13:39:22;9.30;1.00
40253;DHT22;25972;51.854;4.534;2024-02-23T13:41:47;9.50;1.00
40253;DHT22;25972;51.854;4.534;2024-02-23T13:44:13;9.50;1.00
40253;DHT22;25972;51.854;4.534;2024-02-23T13:46:39;9.40;1.00
40253;DHT22;25972;51.854;4.534;2024-02-23T13:49:06;9.40;1.00
40253;DHT22;25972;51.854;4.534;2024-02-23T13:51:33;9.30;1.00
40253;DHT22;25972;51.854;4.534;2024-02-23T13:53:59;9.20;1.00
40253;DHT22;25972;51.854;4.534;2024-02-23T13:56:25;9.20;1.00
40253;DHT22;25972;51.854;4.534;2024-02-23T13:58:50;9.10;1.00
40253;DHT22;25972;51.854;4.534;2024-02-23T14:01:16;9.10;1.00
40253;DHT22;25972;51.854;4.534;2024-02-23T14:03:42;9.00;1.00
40253;DHT22;25972;51.854;4.534;2024-02-23T14:06:08;8.90;1.00
40253;DHT22;25972;51.854;4.534;2024-02-23T14:08:34;8.90;1.00
40253;DHT22;25972;51.854;4.534;2024-02-23T14:11:00;8.90;1.00
40253;DHT22;25972;51.854;4.534;2024-02-23T14:13:26;8.90;1.00
40253;DHT22;25972;51.854;4.534;2024-02-23T14:15:52;8.80;1.00
40253;DHT22;25972;51.854;4.534;2024-02-23T14:18:18;8.90;1.00
40253;DHT22;25972;51.854;4.534;2024-02-23T14:20:43;8.80;1.00
40253;DHT22;25972;51.854;4.534;2024-02-23T14:23:09;8.80;1.00
40253;DHT22;25972;51.854;4.534;2024-02-23T14:25:35;8.70;1.00
40253;DHT22;25972;51.854;4.534;2024-02-23T14:28:00;8.60;1.00
40253;DHT22;25972;51.854;4.534;2024-02-23T14:30:26;8.60;1.00
40253;DHT22;25972;51.854;4.534;2024-02-23T14:32:52;8.60;1.00
40253;DHT22;25972;51.854;4.534;2024-02-23T14:35:17;8.60;1.00
40253;DHT22;25972;51.854;4.534;2024-02-23T14:37:44;8.60;1.00
40253;DHT22;25972;51.854;4.534;2024-02-23T14:40:10;8.60;1.00
40253;DHT22;25972;51.854;4.534;2024-02-23T14:42:37;8.60;1.00
40253;DHT22;25972;51.854;4.534;2024-02-23T14:45:05;8.70;1.00
40253;DHT22;25972;51.854;4.534;2024-02-23T14:47:30;8.80;1.00
40253;DHT22;25972;51.854;4.534;2024-02-23T14:49:56;9.00;1.00
40253;DHT22;25972;51.854;4.534;2024-02-23T14:52:22;9.20;1.00
40253;DHT22;25972;51.854;4.534;2024-02-23T14:54:48;9.20;1.00
40253;DHT22;25972;51.854;4.534;2024-02-23T14:57:14;9.20;1.00
40253;DHT22;25972;51.854;4.534;2024-02-23T14:59:40;9.20;1.00
40253;DHT22;25972;51.854;4.534;2024-02-23T15:02:19;9.20;1.00
40253;DHT22;25972;51.854;4.534;2024-02-23T15:04:45;9.20;1.00
40253;DHT22;25972;51.854;4.534;2024-02-23T15:07:10;9.10;1.00
40253;DHT22;25972;51.854;4.534;2024-02-23T15:09:36;9.00;1.00
40253;DHT22;25972;51.854;4.534;2024-02-23T15:12:02;8.90;1.00
40253;DHT22;25972;51.854;4.534;2024-02-23T15:14:28;8.80;1.00
40253;DHT22;25972;51.854;4.534;2024-02-23T15:16:55;8.80;1.00
40253;DHT22;25972;51.854;4.534;2024-02-23T15:19:20;8.70;1.00
40253;DHT22;25972;51.854;4.534;2024-02-23T15:21:48;8.70;1.00
40253;DHT22;25972;51.854;4.534;2024-02-23T15:24:15;8.70;1.00
40253;DHT22;25972;51.854;4.534;2024-02-23T15:26:43;8.60;1.00
40253;DHT22;25972;51.854;4.534;2024-02-23T15:29:09;8.60;1.00
40253;DHT22;25972;51.854;4.534;2024-02-23T15:31:35;8.60;1.00
40253;DHT22;25972;51.854;4.534;2024-02-23T15:34:01;8.50;1.00
40253;DHT22;25972;51.854;4.534;2024-02-23T15:36:27;8.50;1.00
40253;DHT22;25972;51.854;4.534;2024-02-23T15:38:53;8.40;1.00
40253;DHT22;25972;51.854;4.534;2024-02-23T15:41:24;8.40;1.00
40253;DHT22;25972;51.854;4.534;2024-02-23T15:43:50;8.40;1.00
40253;DHT22;25972;51.854;4.534;2024-02-23T15:46:16;8.30;1.00
40253;DHT22;25972;51.854;4.534;2024-02-23T15:48:42;8.20;1.00
40253;DHT22;25972;51.854;4.534;2024-02-23T15:51:07;8.20;1.00
40253;DHT22;25972;51.854;4.534;2024-02-23T15:53:33;8.10;1.00
40253;DHT22;25972;51.854;4.534;2024-02-23T15:55:59;8.00;1.00
40253;DHT22;25972;51.854;4.534;2024-02-23T15:58:25;8.00;1.00
40253;DHT22;25972;51.854;4.534;2024-02-23T16:00:51;8.00;1.00
40253;DHT22;25972;51.854;4.534;2024-02-23T16:03:19;7.90;1.00
40253;DHT22;25972;51.854;4.534;2024-02-23T16:05:45;7.90;1.00
40253;DHT22;25972;51.854;4.534;2024-02-23T16:08:13;7.90;12.80
40253;DHT22;25972;51.854;4.534;2024-02-23T16:10:39;7.80;24.80
40253;DHT22;25972;51.854;4.534;2024-02-23T16:13:06;7.80;41.20
40253;DHT22;25972;51.854;4.534;2024-02-23T16:15:32;7.80;69.10